Terminal Aerodrome Forecast
Issued by NWS Sterling, VA

Current Version | Previous Version | Graphics & Text | Print | Product List | Glossary On
Versions: 1 2 3 4 5 6 7 8 9 10 11 12 13 14
000
FTUS41 KLWX 252339
TAFMRB
TAF
KMRB 252339Z 2600/2624 VRB04KT P6SM OVC200
     FM260900 04007KT 3SM -SN OVC025
     FM261100 03007KT 4SM -SN OVC015
     FM261500 03004KT P6SM BKN035=

USA.gov is the U.S. government's official web portal to all federal, state and local government web resources and services.